createdAt,value
2023-04-14T00:00:22.513Z,34.61
2023-04-14T00:01:22.534Z,34.53
2023-04-14T00:02:22.653Z,34.45
2023-04-14T00:03:22.770Z,34.40
2023-04-14T00:04:22.670Z,34.36
2023-04-14T00:05:22.897Z,34.34
2023-04-14T00:06:22.550Z,34.30
2023-04-14T00:07:22.558Z,34.27
2023-04-14T00:08:22.551Z,34.26
2023-04-14T00:09:22.549Z,34.26
2023-04-14T00:10:22.563Z,34.19
2023-04-14T00:11:22.573Z,34.22
2023-04-14T00:12:22.569Z,34.19
2023-04-14T00:13:22.597Z,34.18
2023-04-14T00:14:22.589Z,34.19
2023-04-14T00:15:22.586Z,34.16
2023-04-14T00:16:22.628Z,34.15
2023-04-14T00:17:22.645Z,34.13
2023-04-14T00:18:22.637Z,34.12
2023-04-14T00:19:22.611Z,34.11
2023-04-14T00:20:22.622Z,34.10
2023-04-14T00:21:22.619Z,34.06
2023-04-14T00:22:22.681Z,34.07
2023-04-14T00:23:22.672Z,34.06
2023-04-14T00:24:22.636Z,34.03
2023-04-14T00:25:22.660Z,34.04
2023-04-14T00:26:22.682Z,34.03
2023-04-14T00:27:22.677Z,34.00
2023-04-14T00:28:22.675Z,33.98
2023-04-14T00:29:22.703Z,33.98
2023-04-14T00:30:22.688Z,33.98
2023-04-14T00:31:22.782Z,33.95
2023-04-14T00:32:22.763Z,33.96
2023-04-14T00:33:22.715Z,33.92
2023-04-14T00:34:22.712Z,33.91
2023-04-14T00:35:22.721Z,33.90
2023-04-14T00:36:22.758Z,33.89
2023-04-14T00:37:22.736Z,33.89
2023-04-14T00:38:22.745Z,33.84
2023-04-14T00:39:22.781Z,33.86
2023-04-14T00:40:22.764Z,33.85
2023-04-14T00:41:22.773Z,33.83
2023-04-14T00:42:22.778Z,33.81
2023-04-14T00:43:22.799Z,33.78
2023-04-14T00:44:22.797Z,33.80
2023-04-14T00:45:22.836Z,33.80
2023-04-14T00:46:22.854Z,33.79
2023-04-14T00:47:23.032Z,33.75
2023-04-14T00:48:22.846Z,33.77
2023-04-14T00:49:22.867Z,33.74
2023-04-14T00:50:22.883Z,33.75
2023-04-14T00:51:22.909Z,33.75
2023-04-14T00:52:22.923Z,33.74
2023-04-14T00:53:22.932Z,33.70
2023-04-14T00:54:22.951Z,33.70
2023-04-14T00:55:22.966Z,33.68
2023-04-14T00:56:22.981Z,33.68
2023-04-14T00:57:23.004Z,33.66
2023-04-14T00:58:23.027Z,33.65
2023-04-14T00:59:23.041Z,33.65
2023-04-14T01:00:23.141Z,33.66
2023-04-14T01:01:23.127Z,33.64
2023-04-14T01:02:23.408Z,33.60
2023-04-14T01:03:23.235Z,33.58
2023-04-14T01:04:23.274Z,33.57
2023-04-14T01:05:23.289Z,33.57
2023-04-14T01:06:23.127Z,33.57
2023-04-14T01:07:23.139Z,33.58
2023-04-14T01:08:23.149Z,33.53
2023-04-14T01:09:23.166Z,33.54
2023-04-14T01:10:23.186Z,33.53
2023-04-14T01:12:22.203Z,33.47
2023-04-14T01:13:23.218Z,33.49
2023-04-14T01:14:23.224Z,33.48
2023-04-14T01:15:23.484Z,33.48
2023-04-14T01:16:23.293Z,33.43
2023-04-14T01:17:23.336Z,33.45
2023-04-14T01:18:23.282Z,33.43
2023-04-14T01:19:23.325Z,33.42
2023-04-14T01:20:23.309Z,33.40
2023-04-14T01:21:23.328Z,33.41
2023-04-14T01:22:23.341Z,33.40
2023-04-14T01:23:23.360Z,33.39
2023-04-14T01:24:23.378Z,33.35
2023-04-14T01:25:23.409Z,33.34
2023-04-14T01:26:23.408Z,33.35
2023-04-14T01:27:23.422Z,33.31
2023-04-14T01:28:23.440Z,33.26
2023-04-14T01:29:23.450Z,33.26
2023-04-14T01:30:23.473Z,33.27
2023-04-14T01:31:23.588Z,33.24
2023-04-14T01:32:23.531Z,33.25
2023-04-14T01:33:23.539Z,33.22
2023-04-14T01:34:23.540Z,33.21
2023-04-14T01:35:23.557Z,33.21
2023-04-14T01:36:23.610Z,33.18
2023-04-14T01:37:23.579Z,33.19
2023-04-14T01:38:23.597Z,33.19
2023-04-14T01:39:23.619Z,33.18
2023-04-14T01:40:23.638Z,33.17
2023-04-14T01:41:23.679Z,33.16
2023-04-14T01:42:23.679Z,33.16
2023-04-14T01:43:23.668Z,33.16
2023-04-14T01:44:23.712Z,33.14
2023-04-14T01:45:23.745Z,33.13
2023-04-14T01:46:23.716Z,33.13
2023-04-14T01:47:23.872Z,33.11
2023-04-14T01:48:23.769Z,33.11
2023-04-14T01:49:23.848Z,33.11
2023-04-14T01:50:23.796Z,33.08
2023-04-14T01:51:23.789Z,33.08
2023-04-14T01:52:23.796Z,33.05
2023-04-14T01:53:23.824Z,33.05
2023-04-14T01:54:23.845Z,33.05
2023-04-14T01:55:23.858Z,33.04
2023-04-14T01:56:23.860Z,33.03
2023-04-14T01:57:23.884Z,33.02
2023-04-14T01:58:23.919Z,33.03
2023-04-14T01:59:24.486Z,33.00
2023-04-14T02:00:23.945Z,33.01
2023-04-14T02:01:23.990Z,32.97
2023-04-14T02:02:24.063Z,32.99
2023-04-14T02:03:24.079Z,32.99
2023-04-14T02:04:23.981Z,32.96
2023-04-14T02:05:24.019Z,32.95
2023-04-14T02:06:23.998Z,32.95
2023-04-14T02:07:24.007Z,32.95
2023-04-14T02:08:24.024Z,32.93
2023-04-14T02:09:24.030Z,32.91
2023-04-14T02:10:24.050Z,32.92
2023-04-14T02:11:24.058Z,32.92
2023-04-14T02:12:24.090Z,32.89
2023-04-14T02:13:24.098Z,32.91
2023-04-14T02:14:24.086Z,32.86
2023-04-14T02:15:24.143Z,32.87
2023-04-14T02:16:24.190Z,32.88
2023-04-14T02:17:24.159Z,32.86
2023-04-14T02:18:24.145Z,32.84
2023-04-14T02:19:24.180Z,32.86
2023-04-14T02:20:24.177Z,32.86
2023-04-14T02:21:24.211Z,32.83
2023-04-14T02:22:24.197Z,32.85
2023-04-14T02:23:24.211Z,32.85
2023-04-14T02:24:24.224Z,32.85
2023-04-14T02:25:24.248Z,32.84
2023-04-14T02:26:24.254Z,32.81
2023-04-14T02:27:24.268Z,32.80
2023-04-14T02:28:24.279Z,32.80
2023-04-14T02:29:24.299Z,32.79
2023-04-14T02:30:24.476Z,32.79
2023-04-14T02:31:24.405Z,32.78
2023-04-14T02:32:24.388Z,32.76
2023-04-14T02:33:24.361Z,32.76
2023-04-14T02:34:24.376Z,32.74
2023-04-14T02:35:24.405Z,32.77
2023-04-14T02:36:24.415Z,32.75
2023-04-14T02:37:24.473Z,32.73
2023-04-14T02:38:24.530Z,32.72
2023-04-14T02:39:24.474Z,32.74
2023-04-14T02:40:24.488Z,32.73
2023-04-14T02:41:24.505Z,32.72
2023-04-14T02:42:24.515Z,32.68
2023-04-14T02:43:24.564Z,32.70
2023-04-14T02:44:24.566Z,32.69
2023-04-14T02:45:24.565Z,32.70
2023-04-14T02:46:24.604Z,32.69
2023-04-14T02:47:24.625Z,32.71
2023-04-14T02:48:24.613Z,32.68
2023-04-14T02:49:24.641Z,32.68
2023-04-14T02:50:24.660Z,32.67
2023-04-14T02:51:24.672Z,32.68
2023-04-14T02:52:24.689Z,32.67
2023-04-14T02:53:24.719Z,32.67
2023-04-14T02:54:24.710Z,32.66
2023-04-14T02:55:24.725Z,32.63
2023-04-14T02:56:24.754Z,32.67
2023-04-14T02:57:24.762Z,32.67
2023-04-14T02:58:24.765Z,32.67
2023-04-14T02:59:24.787Z,32.62
2023-04-14T03:00:24.818Z,32.61
2023-04-14T03:01:24.855Z,32.59
2023-04-14T03:02:24.900Z,32.59
2023-04-14T03:03:24.861Z,32.58
2023-04-14T03:04:24.894Z,32.55
2023-04-14T03:05:24.878Z,32.56
2023-04-14T03:06:24.894Z,32.58
2023-04-14T03:07:24.908Z,32.56
2023-04-14T03:08:24.921Z,32.52
2023-04-14T03:09:24.970Z,32.54
2023-04-14T03:10:24.972Z,32.54
2023-04-14T03:11:24.977Z,32.51
2023-04-14T03:12:25.003Z,32.50
2023-04-14T03:13:25.018Z,32.52
2023-04-14T03:14:25.025Z,32.51
2023-04-14T03:15:25.051Z,32.50
2023-04-14T03:16:25.118Z,32.51
2023-04-14T03:17:25.120Z,32.51
2023-04-14T03:18:25.114Z,32.48
2023-04-14T03:19:25.114Z,32.47
2023-04-14T03:20:25.135Z,32.46
2023-04-14T03:21:25.163Z,32.45
2023-04-14T03:22:25.171Z,32.46
2023-04-14T03:23:25.186Z,32.45
2023-04-14T03:24:25.200Z,32.42
2023-04-14T03:25:25.315Z,32.40
2023-04-14T03:26:25.233Z,32.42
2023-04-14T03:27:25.254Z,32.42
2023-04-14T03:28:25.264Z,32.37
2023-04-14T03:29:25.276Z,32.40
2023-04-14T03:30:25.291Z,32.39
2023-04-14T03:31:25.373Z,32.37
2023-04-14T03:32:25.373Z,32.36
2023-04-14T03:33:25.349Z,32.35
2023-04-14T03:34:25.379Z,32.39
2023-04-14T03:35:25.388Z,32.37
2023-04-14T03:36:25.424Z,32.35
2023-04-14T03:37:25.433Z,32.34
2023-04-14T03:38:25.449Z,32.33
2023-04-14T03:39:25.466Z,32.33
2023-04-14T03:40:25.505Z,32.31
2023-04-14T03:41:25.552Z,32.31
2023-04-14T03:42:25.531Z,32.32
2023-04-14T03:43:25.554Z,32.31
2023-04-14T03:44:25.574Z,32.27
2023-04-14T03:45:25.607Z,32.30
2023-04-14T03:46:25.712Z,32.31
2023-04-14T03:47:25.645Z,32.28
2023-04-14T03:48:25.661Z,32.28
2023-04-14T03:49:25.677Z,32.27
2023-04-14T03:50:25.695Z,32.26
2023-04-14T03:51:25.721Z,32.24
2023-04-14T03:52:25.739Z,32.22
2023-04-14T03:53:25.757Z,32.22
2023-04-14T03:54:25.775Z,32.22
2023-04-14T03:55:25.800Z,32.20
2023-04-14T03:56:25.818Z,32.20
2023-04-14T03:57:25.874Z,32.19
2023-04-14T03:58:25.857Z,32.18
2023-04-14T03:59:25.878Z,32.19
2023-04-14T04:00:25.889Z,32.19
2023-04-14T04:01:25.952Z,32.17
2023-04-14T04:02:26.094Z,32.15
2023-04-14T04:03:26.092Z,32.15
2023-04-14T04:04:26.066Z,32.16
2023-04-14T04:05:25.986Z,32.17
2023-04-14T04:06:25.992Z,32.15
2023-04-14T04:07:26.009Z,32.13
2023-04-14T04:08:26.024Z,32.10
2023-04-14T04:09:26.047Z,32.11
2023-04-14T04:10:26.059Z,32.11
2023-04-14T04:11:26.082Z,32.12
2023-04-14T04:12:26.112Z,32.11
2023-04-14T04:13:26.128Z,32.11
2023-04-14T04:14:26.130Z,32.08
2023-04-14T04:15:26.146Z,32.07
2023-04-14T04:16:26.237Z,32.08
2023-04-14T04:17:26.192Z,32.05
2023-04-14T04:18:26.186Z,32.03
2023-04-14T04:19:26.208Z,32.02
2023-04-14T04:20:26.225Z,32.01
2023-04-14T04:21:26.228Z,32.02
2023-04-14T04:22:26.264Z,32.00
2023-04-14T04:23:26.259Z,32.02
2023-04-14T04:24:26.274Z,31.98
2023-04-14T04:25:26.288Z,31.97
2023-04-14T04:26:26.292Z,31.98
2023-04-14T04:27:28.441Z,31.97
2023-04-14T04:28:26.295Z,31.94
2023-04-14T04:29:25.312Z,31.95
2023-04-14T04:30:26.268Z,31.94
2023-04-14T04:31:26.292Z,31.93
2023-04-14T04:32:26.377Z,31.91
2023-04-14T04:33:26.245Z,31.91
2023-04-14T04:34:26.254Z,31.91
2023-04-14T04:35:26.218Z,31.89
2023-04-14T04:36:26.218Z,31.89
2023-04-14T04:37:26.205Z,31.90
2023-04-14T04:38:26.193Z,31.87
2023-04-14T04:39:26.197Z,31.84
2023-04-14T04:40:26.193Z,31.85
2023-04-14T04:41:26.182Z,31.86
2023-04-14T04:42:26.164Z,31.86
2023-04-14T04:43:26.158Z,31.84
2023-04-14T04:44:26.139Z,31.84
2023-04-14T04:45:26.257Z,31.82
2023-04-14T04:46:26.133Z,31.81
2023-04-14T04:47:26.193Z,31.80
2023-04-14T04:48:26.147Z,31.82
2023-04-14T04:49:26.170Z,31.82
2023-04-14T04:50:26.188Z,31.81
2023-04-14T04:51:26.232Z,31.79
2023-04-14T04:52:26.238Z,31.80
2023-04-14T04:53:26.255Z,31.80
2023-04-14T04:54:26.292Z,31.79
2023-04-14T04:55:26.308Z,31.77
2023-04-14T04:56:26.313Z,31.77
2023-04-14T04:57:26.333Z,31.76
2023-04-14T04:58:26.386Z,31.73
2023-04-14T04:59:26.382Z,31.72
2023-04-14T05:00:26.411Z,31.71
2023-04-14T05:01:26.535Z,31.72
2023-04-14T05:02:26.603Z,31.69
2023-04-14T05:03:26.539Z,31.68
2023-04-14T05:04:26.550Z,31.68
2023-04-14T05:05:26.562Z,31.68
2023-04-14T05:06:26.575Z,31.65
2023-04-14T05:07:26.612Z,31.65
2023-04-14T05:08:26.633Z,31.65
2023-04-14T05:09:26.687Z,31.67
2023-04-14T05:10:26.680Z,31.67
2023-04-14T05:11:26.701Z,31.64
2023-04-14T05:12:26.722Z,31.61
2023-04-14T05:13:26.739Z,31.60
2023-04-14T05:14:27.727Z,31.62
2023-04-14T05:15:26.876Z,31.59
2023-04-14T05:16:26.790Z,31.59
2023-04-14T05:17:26.926Z,31.57
2023-04-14T05:18:26.853Z,31.57
2023-04-14T05:19:26.861Z,31.59
2023-04-14T05:20:26.885Z,31.59
2023-04-14T05:21:26.901Z,31.58
2023-04-14T05:22:26.916Z,31.59
2023-04-14T05:23:26.933Z,31.54
2023-04-14T05:24:26.956Z,31.57
2023-04-14T05:25:26.969Z,31.58
2023-04-14T05:26:48.708Z,31.58
2023-04-14T05:27:26.973Z,31.58
2023-04-14T05:28:27.075Z,31.61
2023-04-14T05:29:26.950Z,31.59
2023-04-14T05:30:26.955Z,31.60
2023-04-14T05:31:27.115Z,31.61
2023-04-14T05:32:28.997Z,31.60
2023-04-14T05:33:26.908Z,31.59
2023-04-14T05:34:26.876Z,31.60
2023-04-14T05:35:26.860Z,31.58
2023-04-14T05:36:27.078Z,31.60
2023-04-14T05:37:26.836Z,31.56
2023-04-14T05:38:26.840Z,31.56
2023-04-14T05:39:26.826Z,31.55
2023-04-14T05:40:27.084Z,31.54
2023-04-14T05:41:26.777Z,31.54
2023-04-14T05:42:26.754Z,31.54
2023-04-14T05:43:27.091Z,31.55
2023-04-14T05:44:26.735Z,31.58
2023-04-14T05:45:26.749Z,31.65
2023-04-14T05:46:27.135Z,31.71
2023-04-14T05:47:26.721Z,31.73
2023-04-14T05:48:27.087Z,31.74
2023-04-14T05:49:26.680Z,31.71
2023-04-14T05:50:26.702Z,31.73
2023-04-14T05:51:26.642Z,31.70
2023-04-14T05:52:26.642Z,31.77
2023-04-14T05:53:27.095Z,31.85
2023-04-14T05:54:26.636Z,31.95
2023-04-14T05:55:27.093Z,32.04
2023-04-14T05:56:26.618Z,32.13
2023-04-14T05:57:26.655Z,32.21
2023-04-14T05:58:26.880Z,32.29
2023-04-14T05:59:26.569Z,32.40
2023-04-14T06:00:26.634Z,32.60
2023-04-14T06:01:34.066Z,32.87
2023-04-14T06:02:42.598Z,33.02
2023-04-14T06:03:30.000Z,33.24
2023-04-14T06:04:42.476Z,33.53
2023-04-14T06:05:34.026Z,34.71
2023-04-14T06:06:29.981Z,34.85
2023-04-14T06:07:33.921Z,34.69
2023-04-14T06:08:26.585Z,34.57
2023-04-14T06:09:26.466Z,34.63
2023-04-14T06:10:26.538Z,34.72
2023-04-14T06:11:26.605Z,35.05
2023-04-14T06:12:26.397Z,35.06
2023-04-14T06:13:27.546Z,35.11
2023-04-14T06:14:26.453Z,35.16
2023-04-14T06:15:26.609Z,35.29
2023-04-14T06:16:26.353Z,35.45
2023-04-14T06:17:26.664Z,35.58
2023-04-14T06:18:27.090Z,35.72
2023-04-14T06:19:26.324Z,35.81
2023-04-14T06:20:26.320Z,35.85
2023-04-14T06:21:26.282Z,36.09
2023-04-14T06:22:26.274Z,36.10
2023-04-14T06:23:27.260Z,36.12
2023-04-14T06:24:26.244Z,36.24
2023-04-14T06:25:26.674Z,36.28
2023-04-14T06:26:26.610Z,36.36
2023-04-14T06:27:26.196Z,36.40
2023-04-14T06:28:26.201Z,36.41
2023-04-14T06:29:26.181Z,36.61
2023-04-14T06:30:26.212Z,36.62
2023-04-14T06:31:26.637Z,36.74
2023-04-14T06:32:26.405Z,36.83
2023-04-14T06:33:26.355Z,36.95
2023-04-14T06:34:26.609Z,36.93
2023-04-14T06:35:33.527Z,37.16
2023-04-14T06:36:26.633Z,37.17
2023-04-14T06:37:26.420Z,37.21
2023-04-14T06:38:26.405Z,37.25
2023-04-14T06:39:26.387Z,37.32
2023-04-14T06:40:26.763Z,37.38
2023-04-14T06:41:26.385Z,37.46
2023-04-14T06:42:26.353Z,37.51
2023-04-14T06:43:26.335Z,37.61
2023-04-14T06:44:26.603Z,37.74
2023-04-14T06:45:26.814Z,37.68
2023-04-14T06:46:26.719Z,37.71
2023-04-14T06:47:33.687Z,37.61
2023-04-14T06:48:26.293Z,37.62
2023-04-14T06:49:26.225Z,34.98
2023-04-14T06:50:26.229Z,31.06
2023-04-14T06:51:26.629Z,30.83
2023-04-14T06:52:26.294Z,30.08
2023-04-14T06:53:26.224Z,30.09
2023-04-14T06:54:26.202Z,29.74
2023-04-14T06:55:26.654Z,30.31
2023-04-14T06:56:26.336Z,31.74
2023-04-14T06:57:26.245Z,32.51
2023-04-14T06:58:26.310Z,32.65
2023-04-14T06:59:26.253Z,32.86
2023-04-14T07:00:26.666Z,32.96
2023-04-14T07:01:26.315Z,33.43
2023-04-14T07:02:26.298Z,33.50
2023-04-14T07:03:26.301Z,33.67
2023-04-14T07:04:26.277Z,33.59
2023-04-14T07:05:26.658Z,33.69
2023-04-14T07:06:26.705Z,33.65
2023-04-14T07:07:26.260Z,33.73
2023-04-14T07:08:26.290Z,33.98
2023-04-14T07:09:26.647Z,33.91
2023-04-14T07:10:26.288Z,33.91
2023-04-14T07:11:26.302Z,34.14
2023-04-14T07:12:26.250Z,34.11
2023-04-14T07:13:26.509Z,34.19
2023-04-14T07:14:26.307Z,34.25
2023-04-14T07:15:26.208Z,33.58
2023-04-14T07:16:26.229Z,33.55
2023-04-14T07:17:26.648Z,33.49
2023-04-14T07:18:26.222Z,33.99
2023-04-14T07:19:26.193Z,34.30
2023-04-14T07:20:26.216Z,34.31
2023-04-14T07:21:26.174Z,34.27
2023-04-14T07:22:26.623Z,34.40
2023-04-14T07:23:26.170Z,34.28
2023-04-14T07:24:26.732Z,34.32
2023-04-14T07:25:26.158Z,34.34
2023-04-14T07:26:26.621Z,34.42
2023-04-14T07:27:26.145Z,34.44
2023-04-14T07:28:26.150Z,34.46
2023-04-14T07:29:26.258Z,34.58
2023-04-14T07:30:26.119Z,34.88
2023-04-14T07:31:25.692Z,34.88
2023-04-14T07:32:26.209Z,34.91
2023-04-14T07:33:29.493Z,35.01
2023-04-14T07:34:26.249Z,35.28
2023-04-14T07:35:26.662Z,35.23
2023-04-14T07:36:26.244Z,35.25
2023-04-14T07:37:26.205Z,35.20
2023-04-14T07:38:26.636Z,35.19
2023-04-14T07:39:26.185Z,35.13
2023-04-14T07:40:26.706Z,35.11
2023-04-14T07:41:26.176Z,34.57
2023-04-14T07:42:26.202Z,34.64
2023-04-14T07:43:26.505Z,34.73
2023-04-14T07:44:26.166Z,34.71
2023-04-14T07:45:26.094Z,34.63
2023-04-14T07:46:26.377Z,34.65
2023-04-14T07:47:26.245Z,34.72
2023-04-14T07:48:26.057Z,34.77
2023-04-14T07:49:26.146Z,34.81
2023-04-14T07:50:26.099Z,34.89
2023-04-14T07:51:26.048Z,35.00
2023-04-14T07:52:26.067Z,35.13
2023-04-14T07:53:26.144Z,35.28
2023-04-14T07:54:26.170Z,35.33
2023-04-14T07:55:27.705Z,35.33
2023-04-14T07:56:26.322Z,36.18
2023-04-14T07:57:26.652Z,36.56
2023-04-14T07:58:28.576Z,36.14
2023-04-14T07:59:26.412Z,35.96
2023-04-14T08:00:26.352Z,36.06
2023-04-14T08:01:26.652Z,36.14
2023-04-14T08:02:26.462Z,36.20
2023-04-14T08:03:26.472Z,36.25
2023-04-14T08:04:26.343Z,36.16
2023-04-14T08:05:26.389Z,36.21
2023-04-14T08:06:26.636Z,36.25
2023-04-14T08:07:26.255Z,36.29
2023-04-14T08:08:26.281Z,36.32
2023-04-14T08:09:26.242Z,36.43
2023-04-14T08:10:26.262Z,36.43
2023-04-14T08:11:26.643Z,36.63
2023-04-14T08:12:26.224Z,36.80
2023-04-14T08:13:26.163Z,36.81
2023-04-14T08:14:26.645Z,36.87
2023-04-14T08:15:26.125Z,36.77
2023-04-14T08:16:26.233Z,36.86
2023-04-14T08:17:26.163Z,36.95
2023-04-14T08:18:26.081Z,36.89
2023-04-14T08:19:26.065Z,36.97
2023-04-14T08:20:26.072Z,36.95
2023-04-14T08:21:26.060Z,36.91
2023-04-14T08:22:26.036Z,36.91
2023-04-14T08:23:26.019Z,36.98
2023-04-14T08:24:25.996Z,36.87
2023-04-14T08:25:26.171Z,36.86
2023-04-14T08:26:25.940Z,36.94
2023-04-14T08:27:26.197Z,37.03
2023-04-14T08:28:26.043Z,37.08
2023-04-14T08:29:26.044Z,37.18
2023-04-14T08:30:26.200Z,37.19
2023-04-14T08:31:26.130Z,37.44
2023-04-14T08:32:26.204Z,37.81
2023-04-14T08:33:26.131Z,37.65
2023-04-14T08:34:28.288Z,37.69
2023-04-14T08:35:37.305Z,37.60
2023-04-14T08:36:26.082Z,37.55
2023-04-14T08:37:26.050Z,37.65
2023-04-14T08:38:26.077Z,37.64
2023-04-14T08:39:26.038Z,33.88
2023-04-14T08:40:26.149Z,32.07
2023-04-14T08:41:26.017Z,32.69
2023-04-14T08:42:26.022Z,33.80
2023-04-14T08:43:26.155Z,28.86
2023-04-14T08:44:26.324Z,30.94
2023-04-14T08:45:26.178Z,31.81
2023-04-14T08:46:26.066Z,31.20
2023-04-14T08:47:26.079Z,31.68
2023-04-14T08:48:26.021Z,31.71
2023-04-14T08:49:26.149Z,31.91
2023-04-14T08:50:26.119Z,32.80
2023-04-14T08:51:26.044Z,32.92
2023-04-14T08:52:26.063Z,33.03
2023-04-14T08:53:26.096Z,32.98
2023-04-14T08:54:26.153Z,33.14
2023-04-14T08:55:26.170Z,33.15
2023-04-14T08:56:26.060Z,33.17
2023-04-14T08:57:26.080Z,33.22
2023-04-14T08:58:26.060Z,33.22
2023-04-14T08:59:26.375Z,33.29
2023-04-14T09:00:26.217Z,33.62
2023-04-14T09:01:26.238Z,34.01
2023-04-14T09:02:26.152Z,33.68
2023-04-14T09:03:26.279Z,33.65
2023-04-14T09:04:26.290Z,33.58
2023-04-14T09:05:26.084Z,33.60
2023-04-14T09:06:26.156Z,33.59
2023-04-14T09:07:26.581Z,33.76
2023-04-14T09:08:26.049Z,33.86
2023-04-14T09:09:26.446Z,33.88
2023-04-14T09:10:26.051Z,33.92
2023-04-14T09:11:26.015Z,33.95
2023-04-14T09:12:25.973Z,34.04
2023-04-14T09:13:25.981Z,34.08
2023-04-14T09:14:26.065Z,34.20
2023-04-14T09:15:26.668Z,34.28
2023-04-14T09:16:26.200Z,34.38
2023-04-14T09:17:26.213Z,34.42
2023-04-14T09:18:26.213Z,34.55
2023-04-14T09:19:26.206Z,34.67
2023-04-14T09:20:36.794Z,34.66
2023-04-14T09:21:34.305Z,34.83
2023-04-14T09:22:26.140Z,34.83
2023-04-14T09:23:26.332Z,34.94
2023-04-14T09:24:26.449Z,34.94
2023-04-14T09:25:26.208Z,35.02
2023-04-14T09:26:26.118Z,35.15
2023-04-14T09:27:26.072Z,35.19
2023-04-14T09:28:26.041Z,35.29
2023-04-14T09:29:26.052Z,35.35
2023-04-14T09:30:27.768Z,35.43
2023-04-14T09:31:25.119Z,35.52
2023-04-14T09:32:29.640Z,35.67
2023-04-14T09:33:26.008Z,35.65
2023-04-14T09:34:26.056Z,35.73
2023-04-14T09:35:26.171Z,35.76
2023-04-14T09:36:25.963Z,35.69
2023-04-14T09:37:25.989Z,35.85
2023-04-14T09:38:27.716Z,35.97
2023-04-14T09:39:25.929Z,36.06
2023-04-14T09:40:29.428Z,36.16
2023-04-14T09:41:26.925Z,36.21
2023-04-14T09:42:25.893Z,36.39
2023-04-14T09:43:26.214Z,36.45
2023-04-14T09:44:25.842Z,36.50
2023-04-14T09:45:26.189Z,36.53
2023-04-14T09:46:25.873Z,36.57
2023-04-14T09:47:25.816Z,36.58
2023-04-14T09:48:25.828Z,36.73
2023-04-14T09:49:25.781Z,36.79
2023-04-14T09:50:26.265Z,36.88
2023-04-14T09:51:25.744Z,36.93
2023-04-14T09:52:25.728Z,36.91
2023-04-14T09:53:25.713Z,36.95
2023-04-14T09:54:25.710Z,37.06
2023-04-14T09:55:26.191Z,37.14
2023-04-14T09:56:26.191Z,37.13
2023-04-14T09:57:25.731Z,37.29
2023-04-14T09:58:28.287Z,37.31
2023-04-14T09:59:25.709Z,37.32
2023-04-14T10:00:25.728Z,37.42
2023-04-14T10:01:28.961Z,37.43
2023-04-14T10:02:25.995Z,37.49
2023-04-14T10:03:25.726Z,37.49
2023-04-14T10:04:25.663Z,37.56
2023-04-14T10:05:25.745Z,37.66
2023-04-14T10:06:25.585Z,37.70
2023-04-14T10:07:25.581Z,37.72
2023-04-14T10:08:25.690Z,37.78
2023-04-14T10:09:25.549Z,37.89
2023-04-14T10:10:25.652Z,38.03
2023-04-14T10:11:25.501Z,38.09
2023-04-14T10:12:25.490Z,38.05
2023-04-14T10:13:25.699Z,38.18
2023-04-14T10:14:25.440Z,38.24
2023-04-14T10:15:25.703Z,38.29
2023-04-14T10:16:25.405Z,38.29
2023-04-14T10:17:26.616Z,38.35
2023-04-14T10:18:25.381Z,38.45
2023-04-14T10:19:25.385Z,38.52
2023-04-14T10:20:25.760Z,38.54
2023-04-14T10:21:25.312Z,38.54
2023-04-14T10:22:25.289Z,38.74
2023-04-14T10:23:25.695Z,38.86
2023-04-14T10:24:25.709Z,38.94
2023-04-14T10:25:25.841Z,38.89
2023-04-14T10:26:25.209Z,38.84
2023-04-14T10:27:25.204Z,38.83
2023-04-14T10:28:25.171Z,32.27
2023-04-14T10:29:25.156Z,30.77
2023-04-14T10:30:25.212Z,34.19
2023-04-14T10:31:25.273Z,35.11
2023-04-14T10:32:25.731Z,35.72
2023-04-14T10:33:25.238Z,35.84
2023-04-14T10:34:25.287Z,35.59
2023-04-14T10:35:25.267Z,36.16
2023-04-14T10:36:25.724Z,36.27
2023-04-14T10:37:25.724Z,35.87
2023-04-14T10:38:25.286Z,35.93
2023-04-14T10:39:25.296Z,36.14
2023-04-14T10:40:25.333Z,39.75
2023-04-14T10:41:25.734Z,41.68
2023-04-14T10:42:25.702Z,39.75
2023-04-14T10:43:25.326Z,38.79
2023-04-14T10:44:25.458Z,38.28
2023-04-14T10:45:25.789Z,37.75
2023-04-14T10:46:25.723Z,37.47
2023-04-14T10:47:25.814Z,37.63
2023-04-14T10:48:25.364Z,37.78
2023-04-14T10:49:25.380Z,37.76
2023-04-14T10:50:25.373Z,37.76
2023-04-14T10:51:25.353Z,37.66
2023-04-14T10:52:25.746Z,37.65
2023-04-14T10:53:25.341Z,37.64
2023-04-14T10:54:25.382Z,37.60
2023-04-14T10:55:25.339Z,37.60
2023-04-14T10:56:25.712Z,37.63
2023-04-14T10:57:25.707Z,37.65
2023-04-14T10:58:25.461Z,37.63
2023-04-14T10:59:25.569Z,37.58
2023-04-14T11:00:25.593Z,37.45
2023-04-14T11:01:25.807Z,37.30
2023-04-14T11:02:26.435Z,36.94
2023-04-14T11:03:28.704Z,36.82
2023-04-14T11:04:25.903Z,36.73
2023-04-14T11:05:25.789Z,36.71
2023-04-14T11:06:25.810Z,36.68
2023-04-14T11:07:25.748Z,36.63
2023-04-14T11:08:25.794Z,36.74
2023-04-14T11:09:25.766Z,36.78
2023-04-14T11:10:26.224Z,36.78
2023-04-14T11:11:26.213Z,36.77
2023-04-14T11:12:25.691Z,36.76
2023-04-14T11:13:25.722Z,36.85
2023-04-14T11:14:25.646Z,36.88
2023-04-14T11:15:25.639Z,36.97
2023-04-14T11:16:25.644Z,37.05
2023-04-14T11:17:25.796Z,37.11
2023-04-14T11:18:25.646Z,37.20
2023-04-14T11:19:41.240Z,37.20
2023-04-14T11:20:26.038Z,37.24
2023-04-14T11:21:25.597Z,37.29
2023-04-14T11:22:25.622Z,37.35
2023-04-14T11:23:25.567Z,37.42
2023-04-14T11:24:25.584Z,37.47
2023-04-14T11:25:25.744Z,37.44
2023-04-14T11:26:25.540Z,37.50
2023-04-14T11:27:25.524Z,37.52
2023-04-14T11:28:25.559Z,37.60
2023-04-14T11:29:25.593Z,37.59
2023-04-14T11:30:30.059Z,37.60
2023-04-14T11:31:25.838Z,37.64
2023-04-14T11:32:25.684Z,37.71
2023-04-14T11:33:25.577Z,37.82
2023-04-14T11:34:25.566Z,37.82
2023-04-14T11:35:25.739Z,37.88
2023-04-14T11:36:25.717Z,37.92
2023-04-14T11:37:25.573Z,37.97
2023-04-14T11:38:25.724Z,38.10
2023-04-14T11:39:25.594Z,38.13
2023-04-14T11:40:25.624Z,38.10
2023-04-14T11:41:25.609Z,38.19
2023-04-14T11:42:25.620Z,38.26
2023-04-14T11:43:26.222Z,38.28
2023-04-14T11:44:25.634Z,38.37
2023-04-14T11:45:25.621Z,38.40
2023-04-14T11:46:25.672Z,38.50
2023-04-14T11:47:25.642Z,38.55
2023-04-14T11:48:25.613Z,38.58
2023-04-14T11:49:25.630Z,38.65
2023-04-14T11:50:25.625Z,38.71
2023-04-14T11:51:25.619Z,38.74
2023-04-14T11:52:25.623Z,38.78
2023-04-14T11:53:25.727Z,38.86
2023-04-14T11:54:26.334Z,38.97
2023-04-14T11:55:25.614Z,38.98
2023-04-14T11:56:25.636Z,39.06
2023-04-14T11:57:25.729Z,39.15
2023-04-14T11:58:25.726Z,39.29
2023-04-14T11:59:25.603Z,39.30
2023-04-14T12:00:25.586Z,39.42
2023-04-14T12:01:25.585Z,39.55
2023-04-14T12:02:25.733Z,39.63
2023-04-14T12:03:25.657Z,39.77
2023-04-14T12:04:25.663Z,39.86
2023-04-14T12:05:25.620Z,39.85
2023-04-14T12:06:25.563Z,39.88
2023-04-14T12:07:25.550Z,39.97
2023-04-14T12:08:25.534Z,39.94
2023-04-14T12:09:25.532Z,39.80
2023-04-14T12:10:25.539Z,39.73
2023-04-14T12:11:25.565Z,39.70
2023-04-14T12:12:27.022Z,39.59
2023-04-14T12:13:25.565Z,39.30
2023-04-14T12:14:25.513Z,38.85
2023-04-14T12:15:25.494Z,38.55
2023-04-14T12:16:25.505Z,38.29
2023-04-14T12:17:25.463Z,38.22
2023-04-14T12:18:25.419Z,33.89
2023-04-14T12:19:25.402Z,33.48
2023-04-14T12:20:25.423Z,33.71
2023-04-14T12:21:25.395Z,34.15
2023-04-14T12:22:25.381Z,34.44
2023-04-14T12:23:25.382Z,33.74
2023-04-14T12:24:25.349Z,32.58
2023-04-14T12:25:25.332Z,32.67
2023-04-14T12:26:25.333Z,32.77
2023-04-14T12:27:25.337Z,32.94
2023-04-14T12:28:25.399Z,32.78
2023-04-14T12:29:25.329Z,32.68
2023-04-14T12:30:25.302Z,32.67
2023-04-14T12:31:25.349Z,32.67
2023-04-14T12:32:25.813Z,32.62
2023-04-14T12:33:25.288Z,32.62
2023-04-14T12:34:25.330Z,32.45
2023-04-14T12:35:25.290Z,32.37
2023-04-14T12:36:29.758Z,32.32
2023-04-14T12:37:25.747Z,32.21
2023-04-14T12:38:25.257Z,32.11
2023-04-14T12:39:25.255Z,32.11
2023-04-14T12:40:25.285Z,31.99
2023-04-14T12:41:25.262Z,32.04
2023-04-14T12:42:25.746Z,32.06
2023-04-14T12:43:25.251Z,32.04
2023-04-14T12:44:25.300Z,31.99
2023-04-14T12:45:25.237Z,31.83
2023-04-14T12:46:25.262Z,31.92
2023-04-14T12:47:25.340Z,31.95
2023-04-14T12:48:25.236Z,32.18
2023-04-14T12:49:25.240Z,31.80
2023-04-14T12:50:25.229Z,31.61
2023-04-14T12:51:25.245Z,31.40
2023-04-14T12:52:25.302Z,31.47
2023-04-14T12:53:25.234Z,31.60